Time;durP1;ratioP1;P1;durP2;ratioP2;P2;SDS_P1;SDS_P2;PMS_P1;PMS_P2;Temp;Humidity;BMP_temperature;BMP_pressure;BME280_temperature;BME280_humidity;BME280_pressure;Samples;Min_cycle;Max_cycle;Signal;HPM_P1;HPM_P2
2023/05/26 00:01:22;;;;;;;9.77;2.42;;;;;;;19.68;52.58;102847.19;6124035;23;20133;-54
2023/05/26 00:03:48;;;;;;;6.40;2.15;;;;;;;19.68;52.43;102849.91;6122971;23;20006;-54
2023/05/26 00:06:20;;;;;;;9.05;2.63;;;;;;;19.68;52.42;102849.91;6123281;23;20021;-54
2023/05/26 00:08:46;;;;;;;8.18;2.45;;;;;;;19.69;52.03;102848.94;6123597;23;20009;-53
2023/05/26 00:11:12;;;;;;;5.93;2.50;;;;;;;19.67;52.45;102849.03;6123097;23;20314;-54
2023/05/26 00:13:37;;;;;;;5.95;2.25;;;;;;;19.67;52.30;102851.75;6123197;23;20009;-55
2023/05/26 00:16:02;;;;;;;5.57;2.83;;;;;;;19.66;51.96;102846.44;6123481;23;20475;-53
2023/05/26 00:18:28;;;;;;;5.88;2.40;;;;;;;19.66;52.32;102850.00;6124050;23;20374;-54
2023/05/26 00:20:53;;;;;;;9.18;2.63;;;;;;;19.65;52.34;102855.53;6123416;23;20005;-54
2023/05/26 00:23:20;;;;;;;7.93;2.35;;;;;;;19.66;52.23;102857.25;6122750;23;20085;-54
2023/05/26 00:25:45;;;;;;;9.98;2.78;;;;;;;19.65;52.29;102858.25;6123216;23;20021;-54
2023/05/26 00:28:10;;;;;;;7.00;2.47;;;;;;;19.65;52.29;102858.25;6123410;23;20010;-54
2023/05/26 00:30:36;;;;;;;5.57;2.40;;;;;;;19.63;52.23;102858.34;6123010;23;20010;-55
2023/05/26 00:33:01;;;;;;;7.05;2.70;;;;;;;19.63;52.14;102854.75;6123047;23;20337;-55
2023/05/26 00:35:27;;;;;;;9.10;2.88;;;;;;;19.63;52.07;102860.16;6123549;23;20005;-54
2023/05/26 00:37:52;;;;;;;7.88;2.72;;;;;;;19.62;52.11;102864.72;6122906;23;20010;-54
2023/05/26 00:40:18;;;;;;;4.55;2.05;;;;;;;19.62;52.05;102858.44;6123010;23;20012;-54
2023/05/26 00:42:44;;;;;;;5.38;2.50;;;;;;;19.61;52.27;102856.69;6123014;23;20010;-52
2023/05/26 00:45:10;;;;;;;6.47;2.33;;;;;;;19.60;51.81;102858.53;6122957;23;20020;-54
2023/05/26 00:47:35;;;;;;;4.05;2.08;;;;;;;19.60;52.25;102861.25;6122964;23;20080;-55
2023/05/26 00:50:01;;;;;;;5.75;2.35;;;;;;;19.59;51.70;102867.66;6123039;23;20013;-54
2023/05/26 00:52:28;;;;;;;7.25;2.38;;;;;;;19.58;51.93;102868.59;6123413;23;20014;-54
2023/05/26 00:54:54;;;;;;;7.35;2.50;;;;;;;19.58;51.97;102863.19;6123309;23;20429;-54
2023/05/26 00:57:20;;;;;;;6.75;2.42;;;;;;;19.59;51.91;102869.47;6123396;23;21074;-53
2023/05/26 00:59:46;;;;;;;7.00;2.50;;;;;;;19.58;51.90;102868.59;6122787;23;20017;-54
2023/05/26 01:02:14;;;;;;;5.50;2.67;;;;;;;19.58;51.87;102867.75;6122898;23;20006;-54
2023/05/26 01:04:40;;;;;;;7.57;2.42;;;;;;;19.57;52.02;102872.25;6123269;23;20025;-55
2023/05/26 01:07:07;;;;;;;5.15;2.25;;;;;;;19.56;52.04;102865.16;6122623;23;20081;-55
2023/05/26 01:09:33;;;;;;;6.45;2.40;;;;;;;19.56;51.85;102867.00;6123268;23;20009;-54
2023/05/26 01:12:08;;;;;;;6.72;2.88;;;;;;;19.56;52.01;102875.09;6123582;23;20010;-54
2023/05/26 01:14:41;;;;;;;10.10;2.58;;;;;;;19.55;51.71;102874.22;6123957;23;20061;-55
2023/05/26 01:17:19;;;;;;;6.95;2.45;;;;;;;19.55;52.00;102874.22;6125148;23;20365;-54
2023/05/26 01:20:08;;;;;;;6.05;2.40;;;;;;;19.56;51.82;102875.97;6124880;23;20090;-54
2023/05/26 01:22:45;;;;;;;10.25;2.50;;;;;;;19.57;51.85;102868.69;6124911;23;20006;-55
2023/05/26 01:25:11;;;;;;;8.32;2.85;;;;;;;19.54;51.74;102873.34;6124362;23;20021;-54
2023/05/26 01:28:14;;;;;;;7.18;2.40;;;;;;;19.56;51.85;102875.97;6124778;23;20013;-55
2023/05/26 01:30:41;;;;;;;5.47;2.22;;;;;;;19.52;51.75;102872.59;6124946;23;20425;-54
2023/05/26 01:33:07;;;;;;;4.63;2.10;;;;;;;19.51;51.55;102876.28;6124638;23;20020;-55
2023/05/26 01:35:32;;;;;;;8.77;2.72;;;;;;;19.52;51.61;102882.56;6098765;23;20009;-54
2023/05/26 01:37:59;;;;;;;8.35;2.58;;;;;;;19.50;51.71;102874.53;6125674;23;20005;-54
2023/05/26 01:40:25;;;;;;;5.20;1.95;;;;;;;19.50;51.61;102877.25;6124778;23;20002;-55
2023/05/26 01:43:13;;;;;;;7.43;2.40;;;;;;;19.52;51.85;102882.56;6124858;23;20321;-54
2023/05/26 01:45:46;;;;;;;7.15;2.42;;;;;;;19.49;51.76;102875.50;6098782;23;20016;-55
2023/05/26 01:48:14;;;;;;;6.93;2.30;;;;;;;19.48;51.38;102876.50;6124588;23;20002;-54
2023/05/26 01:50:54;;;;;;;8.73;2.40;;;;;;;19.49;51.67;102880.03;6124634;23;20017;-55
2023/05/26 01:53:23;;;;;;;5.40;2.17;;;;;;;19.47;51.71;102882.84;6124536;23;20017;-54
2023/05/26 01:55:54;;;;;;;6.50;2.28;;;;;;;19.46;51.53;102883.84;6124403;23;20040;-54
2023/05/26 01:58:22;;;;;;;5.57;2.40;;;;;;;19.46;51.51;102877.59;6124464;23;20010;-54
2023/05/26 02:00:48;;;;;;;6.78;2.00;;;;;;;19.46;51.54;102886.53;6122749;23;19998;-55
2023/05/26 02:03:14;;;;;;;6.05;2.05;;;;;;;19.46;51.65;102880.28;6123313;23;20017;-54
2023/05/26 02:05:40;;;;;;;7.60;2.67;;;;;;;19.45;51.38;102883.94;6122876;23;20014;-55
2023/05/26 02:08:05;;;;;;;4.72;2.40;;;;;;;19.43;51.31;102881.34;6124442;23;20013;-55
2023/05/26 02:10:31;;;;;;;7.13;2.33;;;;;;;19.44;51.32;102877.69;6124850;23;20013;-54
2023/05/26 02:12:56;;;;;;;5.20;1.83;;;;;;;19.43;51.56;102889.44;6124237;23;20045;-55
2023/05/26 02:15:21;;;;;;;5.82;2.50;;;;;;;19.43;51.50;102886.75;6124313;23;20010;-55
2023/05/26 02:17:53;;;;;;;5.93;1.90;;;;;;;19.43;51.67;102891.28;6124316;23;20421;-54
2023/05/26 02:20:19;;;;;;;4.95;2.30;;;;;;;19.42;51.51;102889.53;6124216;23;20009;-54
2023/05/26 02:22:45;;;;;;;6.05;2.30;;;;;;;19.41;51.39;102894.09;6123650;23;20100;-55
2023/05/26 02:25:10;;;;;;;5.95;2.42;;;;;;;19.41;51.50;102894.09;6123680;23;20033;-54
2023/05/26 02:27:35;;;;;;;5.80;1.95;;;;;;;19.40;51.21;102894.19;6124230;23;20386;-54
2023/05/26 02:30:01;;;;;;;7.88;2.45;;;;;;;19.40;51.50;102897.78;6124979;23;20006;-54
2023/05/26 02:32:26;;;;;;;4.80;1.88;;;;;;;19.40;51.63;102894.19;6123963;23;20017;-53
2023/05/26 02:34:52;;;;;;;7.20;2.42;;;;;;;19.39;51.46;102896.03;6123959;23;20077;-52
2023/05/26 02:37:18;;;;;;;6.57;2.20;;;;;;;19.37;51.54;102892.56;6123819;23;20005;-53
2023/05/26 02:39:43;;;;;;;7.55;2.15;;;;;;;19.38;51.41;102898.84;6124025;23;20006;-53
2023/05/26 02:42:09;;;;;;;5.63;2.20;;;;;;;19.37;51.41;102897.13;6124243;23;20014;-53
2023/05/26 02:44:34;;;;;;;5.78;2.47;;;;;;;19.37;51.26;102897.13;6124907;23;20345;-53
2023/05/26 02:47:00;;;;;;;6.07;2.10;;;;;;;19.36;51.26;102889.97;6124935;23;20010;-53
2023/05/26 02:49:25;;;;;;;6.75;2.15;;;;;;;19.36;51.48;102890.81;6123936;23;20421;-53
2023/05/26 02:51:50;;;;;;;5.18;1.98;;;;;;;19.36;51.31;102890.81;6123664;23;20129;-53
2023/05/26 02:54:16;;;;;;;7.97;2.20;;;;;;;19.36;51.20;102889.97;6124400;23;20017;-53
2023/05/26 02:56:41;;;;;;;5.20;2.40;;;;;;;19.36;51.69;102898.06;6123827;23;20006;-53
2023/05/26 02:59:06;;;;;;;8.02;2.40;;;;;;;19.35;51.34;102894.53;6124097;23;20010;-53
2023/05/26 03:01:32;;;;;;;5.70;2.10;;;;;;;19.34;51.33;102892.78;6125040;23;20417;-53
2023/05/26 03:03:57;;;;;;;4.95;2.33;;;;;;;19.33;51.37;102889.22;6124065;23;20010;-53
2023/05/26 03:06:23;;;;;;;6.63;2.10;;;;;;;19.32;51.57;102890.19;6123792;23;20060;-53
2023/05/26 03:08:48;;;;;;;7.78;2.53;;;;;;;19.32;51.14;102884.81;6123757;23;20072;-53
2023/05/26 03:11:14;;;;;;;5.13;2.33;;;;;;;19.31;51.16;102882.19;6123740;23;20333;-53
2023/05/26 03:13:40;;;;;;;6.40;2.17;;;;;;;19.30;51.26;102883.16;6123645;23;20010;-53
2023/05/26 03:16:06;;;;;;;5.25;2.10;;;;;;;19.30;51.29;102891.25;6124318;23;20006;-52
2023/05/26 03:18:32;;;;;;;6.50;2.70;;;;;;;19.30;51.24;102891.25;6124645;23;20025;-53
2023/05/26 03:20:58;;;;;;;5.50;2.20;;;;;;;19.29;51.08;102900.34;6123438;23;20002;-53
2023/05/26 03:23:24;;;;;;;8.80;2.45;;;;;;;19.28;50.89;102895.91;6123353;23;20039;-52
2023/05/26 03:25:50;;;;;;;8.98;2.80;;;;;;;19.27;51.28;102900.44;6098084;23;20018;-52
2023/05/26 03:28:15;;;;;;;7.10;2.55;;;;;;;19.27;50.96;102902.28;6097792;23;20012;-53
2023/05/26 03:30:41;;;;;;;5.90;2.40;;;;;;;19.27;50.92;102903.16;6097791;23;20002;-53
2023/05/26 03:33:06;;;;;;;7.85;2.42;;;;;;;19.27;51.02;102905.00;6124467;23;20088;-53
2023/05/26 03:35:32;;;;;;;5.65;2.75;;;;;;;19.26;51.12;102903.25;6123801;23;20010;-53
2023/05/26 03:37:57;;;;;;;7.82;2.83;;;;;;;19.26;51.16;102912.22;6123044;23;20007;-53
2023/05/26 03:40:23;;;;;;;6.45;1.95;;;;;;;19.26;51.06;102919.44;6123513;23;20057;-53
2023/05/26 03:42:48;;;;;;;7.57;2.05;;;;;;;19.25;51.21;102913.19;6123686;23;20389;-53
2023/05/26 03:45:13;;;;;;;7.35;2.60;;;;;;;19.25;50.69;102913.19;6123400;23;20060;-53
2023/05/26 03:47:39;;;;;;;9.25;2.63;;;;;;;19.25;50.64;102912.34;6123397;23;20380;-53
2023/05/26 03:50:05;;;;;;;6.60;2.60;;;;;;;19.24;50.59;102924.09;6124310;23;20021;-53
2023/05/26 03:52:31;;;;;;;6.70;2.10;;;;;;;19.23;50.95;102920.53;6123369;23;20014;-53
2023/05/26 03:54:56;;;;;;;8.32;2.80;;;;;;;19.23;50.86;102923.25;6123506;23;20112;-53
2023/05/26 03:57:22;;;;;;;5.45;1.85;;;;;;;19.23;50.72;102933.16;6123387;23;20006;-53
2023/05/26 03:59:47;;;;;;;8.48;2.45;;;;;;;19.23;50.50;102925.03;6123150;23;20089;-53
2023/05/26 04:02:13;;;;;;;8.10;2.63;;;;;;;19.22;50.60;102926.03;6121147;23;20016;-52
2023/05/26 04:04:38;;;;;;;6.68;2.30;;;;;;;19.21;50.83;102917.06;6122816;23;20383;-53
2023/05/26 04:07:04;;;;;;;6.15;2.10;;;;;;;19.21;50.29;102919.78;6123068;23;20010;-52
2023/05/26 04:09:30;;;;;;;6.53;2.47;;;;;;;19.21;50.52;102921.59;6123265;23;20088;-52
2023/05/26 04:11:56;;;;;;;6.53;2.35;;;;;;;19.21;50.44;102918.88;6122958;23;20038;-53
2023/05/26 04:14:21;;;;;;;4.20;1.98;;;;;;;19.20;50.11;102926.13;6096967;23;20010;-53
2023/05/26 04:16:46;;;;;;;4.90;2.38;;;;;;;19.20;50.46;102928.84;6123249;23;20010;-53
2023/05/26 04:19:12;;;;;;;6.05;2.53;;;;;;;19.20;50.33;102927.97;6123161;23;20013;-53
2023/05/26 04:21:37;;;;;;;4.72;2.28;;;;;;;19.20;50.30;102928.84;6123667;23;20447;-53
2023/05/26 04:24:03;;;;;;;6.43;2.42;;;;;;;19.19;50.43;102937.03;6123007;23;20441;-53
2023/05/26 04:26:33;;;;;;;5.13;2.17;;;;;;;19.19;50.64;102937.03;6123233;23;20532;-53
2023/05/26 04:28:59;;;;;;;6.05;2.05;;;;;;;19.18;50.19;102933.47;6122974;23;20013;-53
2023/05/26 04:31:28;;;;;;;5.25;2.33;;;;;;;19.17;50.11;102930.88;6122944;23;20009;-52
2023/05/26 04:33:56;;;;;;;7.40;2.47;;;;;;;19.17;50.32;102930.88;6123125;23;20013;-52
2023/05/26 04:36:23;;;;;;;5.05;1.70;;;;;;;19.17;50.17;102939.84;6122839;23;20006;-52
2023/05/26 04:38:48;;;;;;;6.15;2.72;;;;;;;19.18;50.22;102935.31;6123341;23;20010;-53
2023/05/26 04:41:15;;;;;;;7.40;2.05;;;;;;;19.16;50.36;102938.13;6097199;23;20022;-53
2023/05/26 04:43:43;;;;;;;8.20;2.20;;;;;;;19.16;50.46;102931.84;6123284;23;20425;-53
2023/05/26 04:46:13;;;;;;;6.38;2.70;;;;;;;19.17;50.27;102938.97;6123962;23;20010;-52
2023/05/26 04:48:39;;;;;;;5.53;1.90;;;;;;;19.18;50.13;102940.72;6123848;23;20016;-53
2023/05/26 04:51:08;;;;;;;4.70;2.13;;;;;;;19.17;49.86;102947.06;6124942;23;20029;-52
2023/05/26 04:53:33;;;;;;;7.15;2.47;;;;;;;19.16;50.25;102932.72;6125053;23;20425;-53
2023/05/26 04:56:01;;;;;;;7.25;2.45;;;;;;;19.17;50.43;102938.97;6125338;23;20105;-53
2023/05/26 04:58:27;;;;;;;4.93;1.90;;;;;;;19.18;50.45;102943.41;6125206;23;20013;-53
2023/05/26 05:00:53;;;;;;;5.63;2.28;;;;;;;19.17;50.44;102947.06;6124912;23;20006;-53
2023/05/26 05:03:20;;;;;;;5.28;2.00;;;;;;;19.17;50.03;102947.06;6125185;23;20333;-53
2023/05/26 05:05:46;;;;;;;3.58;1.90;;;;;;;19.16;50.57;102957.03;6125058;23;20009;-53
2023/05/26 05:08:11;;;;;;;3.08;1.60;;;;;;;19.17;50.48;102956.03;6125233;23;20325;-53
2023/05/26 05:10:37;;;;;;;4.55;2.08;;;;;;;19.17;50.14;102956.03;6125423;23;20008;-53
2023/05/26 05:13:03;;;;;;;6.43;2.25;;;;;;;19.17;50.51;102955.19;6124851;23;20014;-53
2023/05/26 05:15:28;;;;;;;4.97;2.20;;;;;;;19.16;50.84;102958.88;6125062;23;20014;-53
2023/05/26 05:17:54;;;;;;;6.75;2.05;;;;;;;19.17;51.31;102957.88;6124859;23;20492;-53
2023/05/26 05:20:19;;;;;;;6.82;1.98;;;;;;;19.18;51.34;102956.91;6125137;23;20020;-53
2023/05/26 05:22:45;;;;;;;6.75;2.42;;;;;;;19.18;51.17;102954.22;6124920;23;20321;-52
2023/05/26 05:25:10;;;;;;;5.32;1.85;;;;;;;19.18;51.40;102962.31;6125106;23;20053;-53
2023/05/26 05:27:36;;;;;;;7.72;2.25;;;;;;;19.17;51.15;102961.44;6124837;23;20017;-52
2023/05/26 05:30:02;;;;;;;4.70;2.40;;;;;;;19.18;51.32;102967.72;6124878;23;20014;-53
2023/05/26 05:32:27;;;;;;;6.95;2.13;;;;;;;19.19;51.56;102964.03;6124742;23;20014;-53
2023/05/26 05:34:52;;;;;;;5.38;2.25;;;;;;;19.18;50.95;102970.44;6124680;23;20013;-53
2023/05/26 05:37:18;;;;;;;5.88;2.47;;;;;;;19.18;51.45;102963.19;6124412;23;20006;-53
2023/05/26 05:39:43;;;;;;;5.65;2.25;;;;;;;19.18;51.52;102968.59;6124663;23;20325;-53
2023/05/26 05:42:09;;;;;;;6.53;2.30;;;;;;;19.19;51.48;102969.44;6125323;23;20006;-53
2023/05/26 05:44:35;;;;;;;6.10;2.25;;;;;;;19.18;51.76;102978.53;6124452;23;20440;-53
2023/05/26 05:47:00;;;;;;;7.47;2.55;;;;;;;19.18;51.57;102973.13;6124836;23;20018;-52
2023/05/26 05:49:25;;;;;;;6.18;2.10;;;;;;;19.18;51.63;102973.13;6124540;23;20032;-53
2023/05/26 05:51:51;;;;;;;7.25;2.05;;;;;;;19.18;51.90;102975.81;6124336;23;20002;-53
2023/05/26 05:54:16;;;;;;;7.15;2.85;;;;;;;19.18;51.69;102975.81;6124293;23;20381;-53
2023/05/26 05:56:42;;;;;;;6.03;2.10;;;;;;;19.19;51.90;102980.25;6125312;23;20014;-53
2023/05/26 05:59:07;;;;;;;7.28;2.42;;;;;;;19.19;51.90;102981.13;6124330;23;20006;-53
2023/05/26 06:01:32;;;;;;;6.95;2.45;;;;;;;19.19;52.20;102982.94;6124008;23;20146;-53
2023/05/26 06:03:58;;;;;;;3.88;2.30;;;;;;;19.19;52.18;102983.84;6124336;23;20053;-53
2023/05/26 06:06:23;;;;;;;5.43;2.45;;;;;;;19.19;52.07;102991.03;6123883;23;20345;-53
2023/05/26 06:08:49;;;;;;;8.40;2.10;;;;;;;19.20;52.33;102987.38;6124238;23;20017;-53
2023/05/26 06:11:14;;;;;;;5.85;2.45;;;;;;;19.19;52.13;102993.75;6098755;23;20033;-52
2023/05/26 06:13:40;;;;;;;12.75;2.60;;;;;;;19.20;52.25;102992.78;6124728;23;20068;-53
2023/05/26 06:16:06;;;;;;;7.30;2.35;;;;;;;19.20;52.20;102995.50;6123928;23;20014;-53
2023/05/26 06:18:31;;;;;;;6.35;2.50;;;;;;;19.20;52.14;102999.06;6123579;23;20052;-53
2023/05/26 06:20:56;;;;;;;8.02;2.83;;;;;;;19.21;52.44;102994.50;6123991;23;20430;-53
2023/05/26 06:23:22;;;;;;;13.77;2.40;;;;;;;19.21;52.34;102994.50;6124236;23;20085;-53
2023/05/26 06:25:47;;;;;;;10.05;2.72;;;;;;;19.21;52.30;102999.91;6123811;23;20025;-53
2023/05/26 06:28:12;;;;;;;15.25;3.00;;;;;;;19.21;52.07;102997.22;6124666;23;20429;-53
2023/05/26 06:30:38;;;;;;;10.07;2.95;;;;;;;19.21;52.09;102999.91;6124221;23;20369;-53
2023/05/26 06:33:03;;;;;;;11.23;2.95;;;;;;;19.21;51.74;102997.22;6123405;23;20036;-53
2023/05/26 06:35:28;;;;;;;11.35;2.80;;;;;;;19.21;51.86;102999.91;6123893;23;20433;-53
2023/05/26 06:37:54;;;;;;;12.75;3.05;;;;;;;19.21;51.87;102995.41;6123395;23;20385;-53
2023/05/26 06:40:19;;;;;;;11.63;3.00;;;;;;;19.21;51.68;102998.09;6124019;23;20009;-52
2023/05/26 06:42:45;;;;;;;11.75;3.00;;;;;;;19.21;51.70;102991.81;6124183;23;20306;-53
2023/05/26 06:45:10;;;;;;;10.20;3.35;;;;;;;19.22;51.71;103004.34;6124396;23;20036;-53
2023/05/26 06:47:35;;;;;;;13.88;3.13;;;;;;;19.21;51.80;102997.22;6123711;23;20017;-53
2023/05/26 06:50:01;;;;;;;10.10;3.00;;;;;;;19.22;51.40;103004.34;6123905;23;20019;-53
2023/05/26 06:52:27;;;;;;;10.80;3.25;;;;;;;19.22;51.35;102993.56;6123715;23;20005;-53
2023/05/26 06:54:52;;;;;;;9.30;3.08;;;;;;;19.22;51.15;103002.50;6123878;23;20070;-53
2023/05/26 06:57:18;;;;;;;9.98;3.15;;;;;;;19.22;51.28;103002.50;6123389;23;20009;-53
2023/05/26 06:59:43;;;;;;;21.25;3.50;;;;;;;19.25;52.00;102998.75;6124021;23;20010;-54
2023/05/26 07:02:08;;;;;;;12.73;3.30;;;;;;;19.24;51.83;103005.97;6123772;23;20006;-54
2023/05/26 07:04:34;;;;;;;20.42;3.47;;;;;;;19.24;52.02;103000.56;6123756;23;20037;-54
2023/05/26 07:06:59;;;;;;;22.63;4.00;;;;;;;19.24;51.95;103005.97;6123699;23;20005;-54
2023/05/26 07:09:24;;;;;;;15.70;3.75;;;;;;;19.25;51.81;103002.31;6123935;23;20387;-54
2023/05/26 07:11:50;;;;;;;12.35;3.47;;;;;;;19.25;51.85;103006.88;6123564;23;20017;-54
2023/05/26 07:14:15;;;;;;;18.58;3.85;;;;;;;19.26;52.07;103000.47;6124373;23;20097;-53
2023/05/26 07:16:41;;;;;;;26.45;3.63;;;;;;;19.26;52.11;103011.28;6123794;23;20006;-50
2023/05/26 07:19:06;;;;;;;16.23;3.50;;;;;;;19.27;52.02;102999.53;6123575;23;20010;-50
2023/05/26 07:21:32;;;;;;;15.38;4.15;;;;;;;19.26;51.78;102997.78;6123499;23;20122;-50
2023/05/26 07:23:58;;;;;;;19.63;4.55;;;;;;;19.26;51.46;103003.19;6123420;23;20047;-52
2023/05/26 07:26:24;;;;;;;13.65;3.67;;;;;;;19.26;51.67;103005.88;6123582;23;20459;-51
2023/05/26 07:28:50;;;;;;;22.08;4.05;;;;;;;19.25;51.64;103007.72;6123563;23;20076;-52
2023/05/26 07:31:16;;;;;;;19.65;4.65;;;;;;;19.25;51.71;103007.72;6124409;23;20421;-50
2023/05/26 07:33:41;;;;;;;21.65;4.03;;;;;;;19.26;51.77;103013.97;6123522;23;20017;-52
2023/05/26 07:36:07;;;;;;;26.17;4.00;;;;;;;19.26;51.51;103011.28;6123204;23;20013;-52
2023/05/26 07:38:32;;;;;;;26.73;4.57;;;;;;;19.26;51.29;103016.69;6123330;23;20451;-52
2023/05/26 07:40:58;;;;;;;11.65;3.05;;;;;;;19.25;51.26;103015.81;6123289;23;20002;-52
2023/05/26 07:43:23;;;;;;;25.35;3.85;;;;;;;19.25;51.26;103006.88;6097630;23;20006;-51
2023/05/26 07:45:48;;;;;;;18.80;4.07;;;;;;;19.25;51.09;103007.72;6123310;23;20484;-52
2023/05/26 07:48:14;;;;;;;23.30;4.05;;;;;;;19.25;50.63;103002.31;6123949;23;20009;-52
2023/05/26 07:50:40;;;;;;;18.67;4.00;;;;;;;19.25;51.03;103006.88;6123096;23;20009;-52
2023/05/26 07:53:05;;;;;;;19.75;4.70;;;;;;;19.26;50.95;103008.59;6123417;23;20374;-52
2023/05/26 07:55:31;;;;;;;12.10;3.60;;;;;;;19.24;50.77;103005.13;6123272;23;20033;-52
2023/05/26 07:57:56;;;;;;;20.83;4.40;;;;;;;19.25;50.72;103007.72;6123281;23;20016;-51
2023/05/26 08:00:22;;;;;;;17.63;3.83;;;;;;;19.25;50.91;103007.72;6123017;23;20492;-51
2023/05/26 08:02:47;;;;;;;17.73;4.30;;;;;;;19.24;50.59;103005.97;6124206;23;20001;-51
2023/05/26 08:05:13;;;;;;;19.80;3.97;;;;;;;19.25;50.82;103009.56;6123191;23;20337;-51
2023/05/26 08:07:38;;;;;;;20.17;3.97;;;;;;;19.25;50.77;103002.31;6123056;23;20448;-50
2023/05/26 08:10:04;;;;;;;14.10;4.13;;;;;;;19.26;50.52;103005.88;6123075;23;20085;-52
2023/05/26 08:12:30;;;;;;;20.70;7.22;;;;;;;19.26;50.77;103008.59;6123280;23;20014;-52
2023/05/26 08:14:56;;;;;;;25.13;7.82;;;;;;;19.27;50.63;103015.72;6123127;23;20080;-51
2023/05/26 08:17:22;;;;;;;22.60;6.63;;;;;;;19.25;50.51;103009.56;6097296;23;20010;-51
2023/05/26 08:19:47;;;;;;;21.13;5.40;;;;;;;19.24;49.26;103011.38;6123749;23;20010;-51
2023/05/26 08:22:12;;;;;;;28.27;6.30;;;;;;;19.20;47.81;103003.59;6122957;23;20006;-52
2023/05/26 08:24:38;;;;;;;17.65;4.95;;;;;;;19.18;47.72;103010.94;6122334;23;20040;-52
2023/05/26 08:27:03;;;;;;;16.65;5.38;;;;;;;19.14;46.93;103002.16;6123101;23;20053;-52
2023/05/26 08:29:29;;;;;;;21.30;5.22;;;;;;;19.15;47.59;103003.88;6123154;23;20013;-52
2023/05/26 08:31:54;;;;;;;19.40;4.43;;;;;;;19.16;48.36;103002.06;6123016;23;20009;-52
2023/05/26 08:34:19;;;;;;;16.02;4.25;;;;;;;19.16;48.29;102994.81;6123409;23;20018;-52
2023/05/26 08:36:46;;;;;;;15.90;4.55;;;;;;;19.17;48.10;103006.47;6123008;23;20081;-49
2023/05/26 08:39:11;;;;;;;15.43;3.80;;;;;;;19.18;47.92;103005.53;6122750;23;20010;-50
2023/05/26 08:41:43;;;;;;;19.42;4.35;;;;;;;19.18;48.95;102995.59;6123100;23;20057;-51
2023/05/26 08:44:11;;;;;;;16.00;4.20;;;;;;;19.19;48.79;102999.16;6123046;23;20046;-51
2023/05/26 08:46:37;;;;;;;21.77;3.67;;;;;;;19.19;49.04;102993.75;6122836;23;20425;-51
2023/05/26 08:49:04;;;;;;;16.48;3.85;;;;;;;19.20;49.53;102990.94;6122821;23;20001;-51
2023/05/26 08:51:36;;;;;;;15.30;4.25;;;;;;;19.22;49.48;103002.50;6122809;23;20333;-50
2023/05/26 08:54:02;;;;;;;14.93;3.70;;;;;;;19.22;49.52;102999.81;6122429;23;20421;-51
2023/05/26 08:56:28;;;;;;;17.13;4.20;;;;;;;19.23;49.68;102989.88;6122473;23;20002;-51
2023/05/26 08:58:54;;;;;;;14.30;3.70;;;;;;;19.23;49.69;102990.75;6122714;23;20006;-51
2023/05/26 09:01:19;;;;;;;15.65;3.72;;;;;;;19.23;49.44;102995.25;6123266;23;20351;-50
2023/05/26 09:03:45;;;;;;;15.95;3.88;;;;;;;19.24;49.82;102997.00;6096535;23;20014;-51
2023/05/26 09:06:10;;;;;;;15.70;3.70;;;;;;;19.25;49.92;102998.75;6122827;23;20018;-52
2023/05/26 09:08:36;;;;;;;14.88;3.92;;;;;;;19.25;49.71;102998.75;6122767;23;20333;-51
2023/05/26 09:11:21;;;;;;;10.00;3.30;;;;;;;19.27;50.03;102999.53;6122556;23;20426;-51
2023/05/26 09:13:51;;;;;;;12.23;3.00;;;;;;;19.25;49.69;102990.66;6123536;23;20378;-52
2023/05/26 09:16:17;;;;;;;13.27;3.58;;;;;;;19.25;49.74;103002.31;6123749;23;20005;-52
2023/05/26 09:18:43;;;;;;;12.65;3.80;;;;;;;19.26;49.48;102995.06;6122545;23;20329;-50
2023/05/26 09:21:08;;;;;;;11.98;3.83;;;;;;;19.26;49.60;102998.63;6122867;23;20421;-50
2023/05/26 09:23:34;;;;;;;11.18;3.30;;;;;;;19.27;49.59;103004.94;6122840;23;20012;-51
2023/05/26 09:25:59;;;;;;;13.77;3.35;;;;;;;19.27;49.67;103011.19;6122539;23;20456;-52
2023/05/26 09:28:24;;;;;;;21.30;3.83;;;;;;;19.27;49.48;103005.78;6122836;23;20014;-50
2023/05/26 09:30:50;;;;;;;8.57;3.47;;;;;;;19.27;49.78;103007.63;6123147;23;20037;-50
2023/05/26 09:33:17;;;;;;;14.73;3.72;;;;;;;19.27;49.89;102999.53;6122945;23;20025;-49
2023/05/26 09:35:44;;;;;;;11.98;3.28;;;;;;;19.27;49.35;103011.19;6098316;23;20085;-49
2023/05/26 09:38:12;;;;;;;11.90;3.63;;;;;;;19.28;49.54;103006.66;6124656;23;20041;-52
2023/05/26 09:40:45;;;;;;;11.85;2.97;;;;;;;19.28;49.54;103007.50;6124535;23;20002;-51
2023/05/26 09:43:11;;;;;;;11.95;3.10;;;;;;;19.29;49.67;103008.38;6124477;23;20014;-51
2023/05/26 09:45:38;;;;;;;10.43;2.90;;;;;;;19.28;49.71;103002.09;6124429;23;20010;-50
2023/05/26 09:48:05;;;;;;;12.20;3.45;;;;;;;19.29;49.26;103003.84;6124357;23;20020;-52
2023/05/26 09:50:35;;;;;;;7.40;2.97;;;;;;;19.29;48.98;103008.38;6124373;23;20137;-53
2023/05/26 09:53:02;;;;;;;12.70;3.35;;;;;;;19.29;48.61;103003.84;6124395;23;20012;-53
2023/05/26 09:55:29;;;;;;;12.02;3.72;;;;;;;19.30;48.67;103010.09;6124292;23;20006;-53
2023/05/26 09:58:02;;;;;;;13.60;4.50;;;;;;;19.30;48.88;102999.31;6124165;23;20025;-53
2023/05/26 10:00:28;;;;;;;11.60;3.88;;;;;;;19.29;48.76;102993.03;6124390;23;20006;-53
2023/05/26 10:02:54;;;;;;;21.88;4.82;;;;;;;19.31;48.94;102987.53;6124334;23;20010;-53
2023/05/26 10:05:21;;;;;;;13.57;4.80;;;;;;;19.30;48.64;102986.66;6125056;23;20010;-53
2023/05/26 10:07:47;;;;;;;16.23;5.00;;;;;;;19.30;48.54;102992.06;6123968;23;20010;-53
2023/05/26 10:10:14;;;;;;;17.27;4.80;;;;;;;19.32;48.51;102998.25;6124179;23;20006;-52
2023/05/26 10:12:41;;;;;;;13.55;4.13;;;;;;;19.33;48.20;102993.72;6124341;23;20017;-53
2023/05/26 10:15:07;;;;;;;15.32;4.43;;;;;;;19.34;48.23;102992.72;6124172;23;20033;-53
2023/05/26 10:17:33;;;;;;;24.60;4.28;;;;;;;19.34;48.93;102990.03;6124482;23;20029;-53
2023/05/26 10:20:00;;;;;;;22.02;4.82;;;;;;;19.35;48.64;102986.38;6124274;23;20002;-52
2023/05/26 10:23:14;;;;;;;20.73;4.65;;;;;;;19.38;48.99;102975.38;6123967;23;20002;-53
2023/05/26 10:25:51;;;;;;;21.90;4.70;;;;;;;19.37;48.35;102981.72;6099118;23;20054;-53
2023/05/26 10:28:29;;;;;;;22.77;4.15;;;;;;;19.38;48.45;102983.47;6124324;23;20433;-54
2023/05/26 10:31:00;;;;;;;20.35;4.57;;;;;;;19.37;48.21;102984.41;6124484;23;20057;-56
2023/05/26 10:33:38;;;;;;;24.27;4.72;;;;;;;19.38;48.50;102969.97;6123786;23;20013;-53
2023/05/26 10:36:08;;;;;;;17.17;3.83;;;;;;;19.39;48.01;102981.63;6123891;23;20393;-53
2023/05/26 10:38:38;;;;;;;22.98;4.20;;;;;;;19.38;48.27;102969.97;6123849;23;20013;-54
2023/05/26 10:41:10;;;;;;;11.85;4.03;;;;;;;19.39;47.95;102965.41;6123865;23;20006;-53
2023/05/26 10:43:35;;;;;;;14.98;4.20;;;;;;;19.39;47.72;102968.97;6123775;23;20013;-52
2023/05/26 10:46:03;;;;;;;13.75;3.75;;;;;;;19.39;47.83;102971.69;6123683;23;20017;-53
2023/05/26 10:48:54;;;;;;;22.98;4.47;;;;;;;19.40;47.71;102976.13;6123128;23;20010;-53
2023/05/26 10:51:28;;;;;;;15.18;4.25;;;;;;;19.41;47.79;102963.47;6123371;23;20437;-53
2023/05/26 10:53:56;;;;;;;17.48;4.15;;;;;;;19.40;47.43;102962.63;6124156;23;20010;-53
2023/05/26 10:56:35;;;;;;;13.07;3.95;;;;;;;19.41;47.52;102967.03;6123795;23;20472;-53
2023/05/26 10:59:02;;;;;;;13.40;3.47;;;;;;;19.41;47.15;102963.47;6122821;23;20433;-53
2023/05/26 11:01:30;;;;;;;16.25;3.50;;;;;;;19.41;47.08;102964.31;6122941;23;20414;-53
2023/05/26 11:04:04;;;;;;;12.07;4.15;;;;;;;19.42;47.07;102951.69;6124239;23;20010;-53
2023/05/26 11:06:43;;;;;;;11.50;3.38;;;;;;;19.42;46.58;102957.97;6123438;23;20006;-53
2023/05/26 11:09:09;;;;;;;8.75;3.50;;;;;;;19.42;46.68;102962.47;6097977;23;20012;-53
2023/05/26 11:11:38;;;;;;;12.68;3.70;;;;;;;19.43;46.92;102964.22;6123954;23;20009;-52
2023/05/26 11:14:12;;;;;;;9.90;3.63;;;;;;;19.44;47.07;102963.25;6122779;23;20337;-53
2023/05/26 11:16:40;;;;;;;12.38;3.33;;;;;;;19.43;47.07;102962.38;6122278;23;20013;-53
2023/05/26 11:19:12;;;;;;;8.75;3.25;;;;;;;19.44;46.94;102960.53;6121737;23;20505;-53
2023/05/26 11:21:39;;;;;;;13.25;3.50;;;;;;;19.46;46.91;102961.34;6121996;23;20080;-53